createdAt,value
2022-11-22T00:04:08.322Z,80.9
2022-11-22T00:09:10.374Z,68.9
2022-11-22T00:14:12.380Z,67.8
2022-11-22T00:19:14.402Z,41.3
2022-11-22T00:24:16.327Z,42
2022-11-22T00:29:18.315Z,47.2
2022-11-22T00:34:20.331Z,60
2022-11-22T00:39:22.332Z,54.3
2022-11-22T00:44:24.303Z,45.6
2022-11-22T00:49:26.253Z,46.8
2022-11-22T00:54:29.851Z,43.9
2022-11-22T00:59:31.986Z,51.3
2022-11-22T01:04:34.587Z,46.4
2022-11-22T01:09:36.706Z,56
2022-11-22T01:14:38.717Z,44.8
2022-11-22T01:19:40.668Z,42.5
2022-11-22T01:24:42.655Z,48.6
2022-11-22T01:29:44.690Z,44.4
2022-11-22T01:34:46.629Z,43.6
2022-11-22T01:39:48.763Z,45.8
2022-11-22T01:44:50.688Z,47.4
2022-11-22T01:49:52.714Z,41.3
2022-11-22T01:54:54.914Z,41
2022-11-22T01:59:56.917Z,58.6
2022-11-22T02:04:58.882Z,66.8
2022-11-22T02:10:00.780Z,87.5
2022-11-22T02:15:02.772Z,61.9
2022-11-22T02:20:04.763Z,63.3
2022-11-22T02:25:06.847Z,69.9
2022-11-22T02:30:08.889Z,55.5
2022-11-22T02:35:10.850Z,53
2022-11-22T02:40:12.854Z,49.9
2022-11-22T02:45:14.848Z,56.1
2022-11-22T02:50:16.771Z,51.4
2022-11-22T02:55:18.887Z,54.5
2022-11-22T03:00:20.775Z,58.8
2022-11-22T03:05:22.914Z,55.7
2022-11-22T03:10:26.285Z,68.5
2022-11-22T03:15:28.320Z,71.3
2022-11-22T03:20:30.340Z,66.1
2022-11-22T03:25:32.547Z,70.4
2022-11-22T03:30:34.489Z,66.9
2022-11-22T03:35:36.429Z,67.1
2022-11-22T03:40:38.402Z,60.3
2022-11-22T03:45:40.353Z,63.1
2022-11-22T03:50:42.522Z,54.3
2022-11-22T03:55:44.643Z,54.3
2022-11-22T04:00:46.740Z,64.7
2022-11-22T04:05:49.005Z,49.6
2022-11-22T04:10:51.506Z,53.2
2022-11-22T04:15:53.531Z,68.2
2022-11-22T04:20:55.662Z,63.6
2022-11-22T04:25:57.665Z,56.9
2022-11-22T04:30:59.649Z,62.2
2022-11-22T04:36:01.933Z,75.9
2022-11-22T04:41:07.372Z,55.1
2022-11-22T04:46:09.392Z,58.3
2022-11-22T04:51:11.530Z,64.7
2022-11-22T04:56:14.073Z,69.3
2022-11-22T05:01:16.124Z,78.4
2022-11-22T05:11:21.014Z,86.6
2022-11-22T05:16:23.201Z,97.4
2022-11-22T05:21:25.282Z,128
2022-11-22T05:26:27.245Z,94.8
2022-11-22T05:31:29.202Z,96
2022-11-22T05:36:31.253Z,126.6
2022-11-22T05:41:33.283Z,93.4
2022-11-22T05:46:35.257Z,119.9
2022-11-22T05:51:37.293Z,126.2
2022-11-22T05:56:39.860Z,115.8
2022-11-22T06:01:42.119Z,122.5
2022-11-22T06:06:44.314Z,135.6
2022-11-22T06:11:46.293Z,148.2
2022-11-22T06:16:48.255Z,148
2022-11-22T06:21:50.305Z,110.3
2022-11-22T06:26:52.358Z,111.2
2022-11-22T06:31:55.219Z,122.4
2022-11-22T06:36:54.991Z,116.2
2022-11-22T06:41:57.086Z,98.3
2022-11-22T06:46:59.261Z,85.1
2022-11-22T06:52:01.345Z,88
2022-11-22T06:57:03.438Z,85.6
2022-11-22T07:02:06.752Z,91.5
2022-11-22T07:07:09.335Z,83.2
2022-11-22T07:12:11.612Z,83.8
2022-11-22T07:17:13.771Z,87.6
2022-11-22T07:22:15.742Z,88.4
2022-11-22T07:27:17.689Z,84.3
2022-11-22T07:32:19.892Z,88.1
2022-11-22T07:37:21.858Z,80.8
2022-11-22T07:42:26.256Z,77.6
2022-11-22T07:47:28.686Z,81.5
2022-11-22T07:52:30.636Z,83
2022-11-22T07:57:32.899Z,82.4
2022-11-22T08:02:35.252Z,80.4
2022-11-22T08:07:37.222Z,76.6
2022-11-22T08:12:39.643Z,72.7
2022-11-22T08:17:41.711Z,71.5
2022-11-22T08:22:43.859Z,53.3
2022-11-22T08:27:45.855Z,22.1
2022-11-22T08:32:48.060Z,15.1
2022-11-22T08:37:50.234Z,17.6
2022-11-22T08:42:52.237Z,17.8
2022-11-22T08:47:54.151Z,16.4
2022-11-22T08:52:56.340Z,17.6
2022-11-22T08:57:58.808Z,17
2022-11-22T09:03:00.803Z,15.5
2022-11-22T09:13:03.445Z,13.2
2022-11-22T09:18:05.519Z,13.4
2022-11-22T09:23:07.483Z,12.2
2022-11-22T09:28:09.464Z,12
2022-11-22T09:33:11.418Z,11.2
2022-11-22T09:38:13.405Z,10.2
2022-11-22T09:43:15.543Z,10.6
2022-11-22T09:48:17.503Z,10.4
2022-11-22T09:53:19.545Z,10.2
2022-11-22T09:58:21.737Z,11.9
2022-11-22T10:03:23.927Z,11
2022-11-22T10:08:25.892Z,10.5
2022-11-22T10:13:28.009Z,11.3
2022-11-22T10:18:30.016Z,10.9
2022-11-22T10:23:31.968Z,11.6
2022-11-22T10:28:33.919Z,10.7
2022-11-22T10:33:38.849Z,9.9
2022-11-22T10:38:36.179Z,9.1
2022-11-22T10:43:38.310Z,9.5
2022-11-22T10:48:40.382Z,8.4
2022-11-22T10:53:42.861Z,8.2
2022-11-22T10:58:45.142Z,8
2022-11-22T11:03:47.023Z,9
2022-11-22T11:13:52.283Z,5.6
2022-11-22T11:18:54.242Z,6.7
2022-11-22T11:23:56.446Z,6.1
2022-11-22T11:28:58.388Z,5.7
2022-11-22T11:34:00.345Z,5.2
2022-11-22T11:39:02.538Z,5.6
2022-11-22T11:44:04.456Z,5.8
2022-11-22T11:49:06.404Z,4.7
2022-11-22T11:54:08.526Z,5.1
2022-11-22T11:59:11.080Z,5
2022-11-22T12:04:13.100Z,5.5
2022-11-22T12:09:15.389Z,5.4
2022-11-22T12:14:20.222Z,6.3
2022-11-22T12:19:24.923Z,5.6
2022-11-22T12:24:45.515Z,6.1
2022-11-22T12:29:33.757Z,6.4
2022-11-22T12:34:35.793Z,7.1
2022-11-22T12:39:37.819Z,6.8
2022-11-22T12:44:39.702Z,6.3
2022-11-22T12:49:42.194Z,8
2022-11-22T12:54:44.315Z,8.5
2022-11-22T12:59:46.567Z,8.5
2022-11-22T13:04:48.469Z,8.3
2022-11-22T13:09:50.620Z,7.7
2022-11-22T13:14:52.603Z,9.8
2022-11-22T13:19:54.662Z,8.8
2022-11-22T13:24:56.661Z,9
2022-11-22T13:29:58.813Z,9.7
2022-11-22T13:35:01.073Z,11.6
2022-11-22T13:40:03.163Z,8.9
2022-11-22T13:45:06.016Z,8.2
2022-11-22T13:50:07.954Z,14
2022-11-22T13:55:12.447Z,7.5
2022-11-22T14:00:17.529Z,7.9
2022-11-22T14:05:19.509Z,7.7
2022-11-22T14:10:21.480Z,7.4
2022-11-22T14:15:23.492Z,7.6
2022-11-22T14:20:25.941Z,7.8
2022-11-22T14:25:27.833Z,6.6
2022-11-22T14:30:29.724Z,7.8
2022-11-22T14:35:31.762Z,10.2
2022-11-22T14:40:37.494Z,12.5
2022-11-22T14:45:39.746Z,12.5
2022-11-22T14:50:41.839Z,13.8
2022-11-22T14:55:43.978Z,14
2022-11-22T15:00:46.042Z,14.1
2022-11-22T15:09:07.364Z,13.6
2022-11-22T16:03:30.008Z,10.7
2022-11-22T16:08:32.883Z,12.3
2022-11-22T16:13:35.371Z,12.7
2022-11-22T16:18:37.669Z,11.8
2022-11-22T16:23:39.828Z,15.5
2022-11-22T16:28:41.886Z,15.7
2022-11-22T16:38:46.206Z,16.9
2022-11-22T16:43:48.198Z,18.2
2022-11-22T16:48:50.341Z,17.5
2022-11-22T16:53:52.635Z,19.2
2022-11-22T16:58:54.740Z,22.4
2022-11-22T17:03:56.895Z,20
2022-11-22T17:08:58.994Z,21.9
2022-11-22T17:14:01.196Z,21.1
2022-11-22T17:19:03.488Z,20
2022-11-22T17:24:04.259Z,21.6
2022-11-22T17:29:11.060Z,20.8
2022-11-22T17:34:11.625Z,21.7
2022-11-22T17:39:13.698Z,21.7
2022-11-22T17:44:15.959Z,23.7
2022-11-22T17:49:18.162Z,21.1
2022-11-22T17:54:20.397Z,20.9
2022-11-22T17:59:22.408Z,19.7
2022-11-22T18:04:24.535Z,19.7
2022-11-22T18:09:26.942Z,20.1
2022-11-22T18:14:30.325Z,20.4
2022-11-22T18:19:32.623Z,20.1
2022-11-22T18:24:35.662Z,19.8
2022-11-22T18:29:42.449Z,19.5
2022-11-22T18:34:45.052Z,19.9
2022-11-22T18:39:47.079Z,19.4
2022-11-22T18:44:49.270Z,18.4
2022-11-22T18:49:51.267Z,18.6
2022-11-22T18:54:53.226Z,20.9
2022-11-22T18:59:55.244Z,19
2022-11-22T19:04:57.487Z,19
2022-11-22T19:09:59.437Z,19.3
2022-11-22T19:15:01.396Z,20.2
2022-11-22T19:20:03.366Z,17.6
2022-11-22T19:25:05.555Z,17.5
2022-11-22T19:30:08.340Z,17.1
2022-11-22T19:35:12.347Z,17
2022-11-22T19:40:14.287Z,16.9
2022-11-22T19:45:16.245Z,17.8
2022-11-22T19:50:18.511Z,17.9
2022-11-22T19:55:21.046Z,19.3
2022-11-22T20:00:22.971Z,18.2
2022-11-22T20:05:25.326Z,17.9
2022-11-22T20:10:27.365Z,16.9
2022-11-22T20:15:29.459Z,17.3
2022-11-22T20:20:31.528Z,14.3
2022-11-22T20:25:33.842Z,14.5
2022-11-22T20:30:36.141Z,16
2022-11-22T20:35:38.396Z,15
2022-11-22T20:40:40.349Z,15.6
2022-11-22T20:45:42.505Z,14.2
2022-11-22T20:50:44.471Z,14.9
2022-11-22T20:55:47.600Z,15
2022-11-22T21:00:49.905Z,13.6
2022-11-22T21:05:52.258Z,13.8
2022-11-22T21:10:54.320Z,12.6
2022-11-22T21:15:56.311Z,12.3
2022-11-22T21:20:58.299Z,14.3
2022-11-22T21:26:00.330Z,12.5
2022-11-22T21:31:02.550Z,12.4
2022-11-22T21:36:04.428Z,11.5
2022-11-22T21:41:32.041Z,10.8
2022-11-22T21:46:14.663Z,10.8
2022-11-22T21:51:16.774Z,10.7
2022-11-22T21:56:18.757Z,10.8
2022-11-22T22:01:20.813Z,13.3
2022-11-22T22:06:23.729Z,11.5
2022-11-22T22:11:25.840Z,10.2
2022-11-22T22:16:27.938Z,10.8
2022-11-22T22:21:30.737Z,12.1
2022-11-22T22:26:32.747Z,9.6
2022-11-22T22:31:34.784Z,10.7
2022-11-22T22:36:36.644Z,9.3
2022-11-22T22:41:38.599Z,10.4
2022-11-22T22:46:40.602Z,10.6
2022-11-22T22:51:42.595Z,11.4
2022-11-22T22:56:44.648Z,11
2022-11-22T23:01:46.772Z,12.5
2022-11-22T23:06:49.043Z,12.6
2022-11-22T23:11:51.123Z,11.2
2022-11-22T23:16:57.256Z,12.4
2022-11-22T23:22:00.148Z,12.9
2022-11-22T23:27:02.188Z,12
2022-11-22T23:32:04.128Z,12.8
2022-11-22T23:37:06.137Z,12.3
2022-11-22T23:42:08.279Z,14.3
2022-11-22T23:47:10.293Z,11.9
2022-11-22T23:52:12.253Z,13.7
2022-11-22T23:57:14.330Z,13.6
